Lalla Fatma N'soumer — C6TT8 — position and weather

sailwx.info

Track history (hours):
 
Tides and Currents Weather Stations Pressure Air Temp Water Temp Dewpoint Dewpoint Depression Visibility Wind Speed Wind Dir Waves Ship Positions

Lalla Fatma N'soumer

Last reported at 2018-Jul-16 22:45 UTC. Time now 2018-Jul-17 04:05 UTC.
Position N 35°52' W 000°13'.

Length 292 m; draft 10 m.

Type: Ship (hazmat cat D). MMSI: 311775000.

Date/timePositionNaut miles runAvg speedWind from/ knotsBaromVisibWave heightAir tempDewpointWater temp
2018-Jul-16 22:45N 35°52' W 000°13'0 0.0
2018-Jul-16 20:36N 35°52' W 000°13'0 0.1
2018-Jul-16 20:12N 35°52' W 000°13'0 0.2
2018-Jul-16 19:54N 35°52' W 000°13'0 0.0
2018-Jul-15 12:41N 35°52' W 000°13'  
2018-Jul-13 03:25N 36°01' W 000°03'6 3.6
2018-Jul-13 01:42N 36°07' W 000°01'3 3.5
2018-Jul-13 00:55N 36°09' W 000°02'0 0.4
2018-Jul-13 00:23N 36°09' W 000°02'0 0.3
2018-Jul-13 00:00N 36°09' W 000°02'0 0.1
2018-Jul-12 23:24N 36°09' W 000°02'0 0.2
2018-Jul-12 22:59N 36°09' W 000°02'0 0.3
2018-Jul-12 22:29N 36°09' W 000°02'0 0.2
2018-Jul-12 21:58N 36°10' W 000°03'0 0.1
2018-Jul-12 21:30N 36°10' W 000°03'1 1.1
2018-Jul-12 21:00N 36°09' W 000°02'1 1.9
2018-Jul-12 20:30N 36°09' W 000°01'0 0.7
2018-Jul-12 20:00N 36°09' W 000°01'1 0.9
2018-Jul-12 19:15N 36°10' W 000°01'1 0.9
2018-Jul-12 18:33N 36°10' W 000°00'1 1.7
2018-Jul-12 17:52N 36°11' E 000°01'6 9.0
2018-Jul-12 17:14N 36°13' E 000°07'314.1
2018-Jul-12 17:00N 36°14' E 000°11'714.4
2018-Jul-12 16:30N 36°17' E 000°19'714.0
2018-Jul-12 16:00N 36°21' E 000°26'713.7
2018-Jul-12 15:30N 36°25' E 000°34'713.7
2018-Jul-12 15:00N 36°28' E 000°41'713.3
2018-Jul-12 14:31N 36°32' E 000°48'713.1
2018-Jul-12 13:59N 36°34' E 000°56'612.9
2018-Jul-12 13:30N 36°36' E 001°03'612.9
2018-Jul-12 13:01N 36°38' E 001°11'612.8
2018-Jul-12 12:31N 36°40' E 001°18'1712.6
2018-Jul-12 11:07N 36°45' E 001°39'112.5
2018-Jul-12 11:00N 36°46' E 001°41'712.5
2018-Jul-12 10:27N 36°47' E 001°49'812.7
2018-Jul-12 09:48N 36°49' E 001°59'512.9
2018-Jul-12 09:27N 36°50' E 002°05'613.0
2018-Jul-12 08:58N 36°51' E 002°12'613.2
2018-Jul-12 08:30N 36°51' E 002°20'713.5
2018-Jul-12 07:59N 36°52' E 002°29'713.6
2018-Jul-12 07:29N 36°54' E 002°37'713.7
2018-Jul-12 07:00N 36°57' E 002°44'713.2
2018-Jul-12 06:28N 36°58' E 002°53'1612.9
2018-Jul-12 05:14N 36°58' E 003°13'313.7
2018-Jul-12 05:00N 36°59' E 003°17'8713.5
2018-Jul-11 22:34N 37°10' E 005°05'113.9
2018-Jul-11 22:30N 37°10' E 005°06'714.0
2018-Jul-11 22:00N 37°11' E 005°15'714.1
2018-Jul-11 21:30N 37°11' E 005°24'714.1
2018-Jul-11 21:00N 37°12' E 005°32'5913.6
2018-Jul-11 16:40N 37°16' E 006°47'213.7
2018-Jul-11 16:30N 37°16' E 006°50'714.0
2018-Jul-11 16:00N 37°16' E 006°58'814.4
2018-Jul-11 15:25N 37°16' E 007°09'2214.5
2018-Jul-11 13:56N 37°15' E 007°36'29112.9
2018-Jul-10 15:20N 36°37' E 013°36'413.4
2018-Jul-10 15:00N 36°35' E 013°42'713.2
2018-Jul-10 14:30N 36°32' E 013°49'713.2
2018-Jul-10 13:57N 36°30' E 013°58'613.3
2018-Jul-10 13:31N 36°27' E 014°04'713.6
2018-Jul-10 13:00N 36°24' E 014°12'713.6
2018-Jul-10 12:30N 36°22' E 014°20'713.7
2018-Jul-10 12:00N 36°20' E 014°28'713.7
2018-Jul-10 11:30N 36°17' E 014°36'713.9
2018-Jul-10 11:00N 36°14' E 014°44'714.1
2018-Jul-10 10:30N 36°12' E 014°52'714.1
2018-Jul-10 10:00N 36°10' E 015°01'  
2018-Jul-08 00:39N 32°17' E 030°31'216.6
2018-Jul-08 00:30N 32°16' E 030°34'3316.4
2018-Jul-07 22:30N 32°08' E 031°12'816.2
2018-Jul-07 22:00N 32°06' E 031°21'1016.4
2018-Jul-07 21:25N 32°04' E 031°32'1815.7
2018-Jul-07 20:16N 31°53' E 031°49'615.4
2018-Jul-07 19:53N 31°49' E 031°54'3313.5
2018-Jul-07 17:26N 31°27' E 032°24'510.3
2018-Jul-07 17:00N 31°23' E 032°23'612.2
2018-Jul-07 16:30N 31°17' E 032°22'5 9.0
2018-Jul-07 16:00N 31°13' E 032°20'6 8.3
2018-Jul-07 15:18N 31°07' E 032°19'14 9.3
2018-Jul-07 13:47N 30°53' E 032°19'  
Track history (hours):
 
Tides and Currents Weather Stations Pressure Air Temp Water Temp Dewpoint Dewpoint Depression Visibility Wind Speed Wind Dir Waves Ship Positions

Lalla Fatma N'soumer

Last reported at 2018-Jul-16 22:45 UTC. Time now 2018-Jul-17 04:05 UTC.
Position N 35°52' W 000°13'.

Length 292 m; draft 10 m.

Type: Ship (hazmat cat D). MMSI: 311775000.

Date/timePositionNaut miles runAvg speedWind from/ knotsBaromVisibWave heightAir tempDewpointWater temp
2018-Jul-16 22:45N 35°52' W 000°13'0 0.0
2018-Jul-16 20:36N 35°52' W 000°13'0 0.1
2018-Jul-16 20:12N 35°52' W 000°13'0 0.2
2018-Jul-16 19:54N 35°52' W 000°13'0 0.0
2018-Jul-15 12:41N 35°52' W 000°13'  
2018-Jul-13 03:25N 36°01' W 000°03'6 3.6
2018-Jul-13 01:42N 36°07' W 000°01'3 3.5
2018-Jul-13 00:55N 36°09' W 000°02'0 0.4
2018-Jul-13 00:23N 36°09' W 000°02'0 0.3
2018-Jul-13 00:00N 36°09' W 000°02'0 0.1
2018-Jul-12 23:24N 36°09' W 000°02'0 0.2
2018-Jul-12 22:59N 36°09' W 000°02'0 0.3
2018-Jul-12 22:29N 36°09' W 000°02'0 0.2
2018-Jul-12 21:58N 36°10' W 000°03'0 0.1
2018-Jul-12 21:30N 36°10' W 000°03'1 1.1
2018-Jul-12 21:00N 36°09' W 000°02'1 1.9
2018-Jul-12 20:30N 36°09' W 000°01'0 0.7
2018-Jul-12 20:00N 36°09' W 000°01'1 0.9
2018-Jul-12 19:15N 36°10' W 000°01'1 0.9
2018-Jul-12 18:33N 36°10' W 000°00'1 1.7
2018-Jul-12 17:52N 36°11' E 000°01'6 9.0
2018-Jul-12 17:14N 36°13' E 000°07'314.1
2018-Jul-12 17:00N 36°14' E 000°11'714.4
2018-Jul-12 16:30N 36°17' E 000°19'714.0
2018-Jul-12 16:00N 36°21' E 000°26'713.7
2018-Jul-12 15:30N 36°25' E 000°34'713.7
2018-Jul-12 15:00N 36°28' E 000°41'713.3
2018-Jul-12 14:31N 36°32' E 000°48'713.1
2018-Jul-12 13:59N 36°34' E 000°56'612.9
2018-Jul-12 13:30N 36°36' E 001°03'612.9
2018-Jul-12 13:01N 36°38' E 001°11'612.8
2018-Jul-12 12:31N 36°40' E 001°18'1712.6
2018-Jul-12 11:07N 36°45' E 001°39'112.5
2018-Jul-12 11:00N 36°46' E 001°41'712.5
2018-Jul-12 10:27N 36°47' E 001°49'812.7
2018-Jul-12 09:48N 36°49' E 001°59'512.9
2018-Jul-12 09:27N 36°50' E 002°05'613.0
2018-Jul-12 08:58N 36°51' E 002°12'613.2
2018-Jul-12 08:30N 36°51' E 002°20'713.5
2018-Jul-12 07:59N 36°52' E 002°29'713.6
2018-Jul-12 07:29N 36°54' E 002°37'713.7
2018-Jul-12 07:00N 36°57' E 002°44'713.2
2018-Jul-12 06:28N 36°58' E 002°53'1612.9
2018-Jul-12 05:14N 36°58' E 003°13'313.7
2018-Jul-12 05:00N 36°59' E 003°17'8713.5
2018-Jul-11 22:34N 37°10' E 005°05'113.9
2018-Jul-11 22:30N 37°10' E 005°06'714.0
2018-Jul-11 22:00N 37°11' E 005°15'714.1
2018-Jul-11 21:30N 37°11' E 005°24'714.1
2018-Jul-11 21:00N 37°12' E 005°32'5913.6
2018-Jul-11 16:40N 37°16' E 006°47'213.7
2018-Jul-11 16:30N 37°16' E 006°50'714.0
2018-Jul-11 16:00N 37°16' E 006°58'814.4
2018-Jul-11 15:25N 37°16' E 007°09'2214.5
2018-Jul-11 13:56N 37°15' E 007°36'29112.9
2018-Jul-10 15:20N 36°37' E 013°36'413.4
2018-Jul-10 15:00N 36°35' E 013°42'713.2
2018-Jul-10 14:30N 36°32' E 013°49'713.2
2018-Jul-10 13:57N 36°30' E 013°58'613.3
2018-Jul-10 13:31N 36°27' E 014°04'713.6
2018-Jul-10 13:00N 36°24' E 014°12'713.6
2018-Jul-10 12:30N 36°22' E 014°20'713.7
2018-Jul-10 12:00N 36°20' E 014°28'713.7
2018-Jul-10 11:30N 36°17' E 014°36'713.9
2018-Jul-10 11:00N 36°14' E 014°44'714.1
2018-Jul-10 10:30N 36°12' E 014°52'714.1
2018-Jul-10 10:00N 36°10' E 015°01'  
2018-Jul-08 00:39N 32°17' E 030°31'216.6
2018-Jul-08 00:30N 32°16' E 030°34'3316.4
2018-Jul-07 22:30N 32°08' E 031°12'816.2
2018-Jul-07 22:00N 32°06' E 031°21'1016.4
2018-Jul-07 21:25N 32°04' E 031°32'1815.7
2018-Jul-07 20:16N 31°53' E 031°49'615.4
2018-Jul-07 19:53N 31°49' E 031°54'3313.5
2018-Jul-07 17:26N 31°27' E 032°24'510.3
2018-Jul-07 17:00N 31°23' E 032°23'612.2
2018-Jul-07 16:30N 31°17' E 032°22'5 9.0
2018-Jul-07 16:00N 31°13' E 032°20'6 8.3
2018-Jul-07 15:18N 31°07' E 032°19'14 9.3
2018-Jul-07 13:47N 30°53' E 032°19'  

Dump ship's entire track history